UAE602 OMDB-OPKC
Flight info
| Callsign | UAE602 |
|---|---|
| Flight time | N/A |
| Altitude | 35000 |
| Route | IVURO M428 TARBO Z440 DAMUM B524 ALPOR G216 LAKIV |
| Aircraft | B77W/H-SDE1E2E3FGHIJ2J3J4J5M1RWXY/LB1D1 |
Departure
| Time | 2026-04-26 14:17 |
|---|---|
| Airport | Dubai International Airport (OMDB) |
Arrival
| Time | N/A |
|---|---|
| Airport | Jinnah International Airport (OPKC) |
| Time | Latitude | Longitude | Altitude | Speed | Heading |
|---|---|---|---|---|---|
| 2026-04-26 13:41 | 25.24156 | 55.37326 | 76 ft | 0 kts | 31° |
| 2026-04-26 14:05 | 25.24145 | 55.37318 | 76 ft | 2 kts | 31° |
| 2026-04-26 14:05 | 25.24132 | 55.37309 | 76 ft | 2 kts | 31° |
| 2026-04-26 14:06 | 25.24130 | 55.37309 | 76 ft | 0 kts | 31° |
| 2026-04-26 14:06 | 25.24119 | 55.37300 | 76 ft | 2 kts | 31° |
| 2026-04-26 14:06 | 25.24107 | 55.37291 | 76 ft | 2 kts | 47° |
| 2026-04-26 14:06 | 25.24098 | 55.37278 | 76 ft | 2 kts | 66° |
| 2026-04-26 14:07 | 25.24093 | 55.37262 | 76 ft | 2 kts | 82° |
| 2026-04-26 14:07 | 25.24093 | 55.37246 | 76 ft | 2 kts | 98° |
| 2026-04-26 14:07 | 25.24097 | 55.37230 | 76 ft | 2 kts | 115° |
| 2026-04-26 14:07 | 25.24101 | 55.37223 | 76 ft | 1 kts | 122° |
| 2026-04-26 14:08 | 25.24101 | 55.37221 | 76 ft | 0 kts | 122° |
| 2026-04-26 14:11 | 25.24065 | 55.37289 | 76 ft | 16 kts | 120° |
| 2026-04-26 14:11 | 25.23993 | 55.37421 | 76 ft | 19 kts | 116° |
| 2026-04-26 14:11 | 25.23996 | 55.37569 | 76 ft | 21 kts | 57° |
| 2026-04-26 14:12 | 25.24112 | 55.37666 | 76 ft | 20 kts | 32° |
| 2026-04-26 14:12 | 25.24230 | 55.37748 | 76 ft | 19 kts | 31° |
| 2026-04-26 14:12 | 25.24330 | 55.37817 | 76 ft | 8 kts | 33° |
| 2026-04-26 14:12 | 25.24338 | 55.37823 | 76 ft | 0 kts | 33° |
| 2026-04-26 14:13 | 25.24353 | 55.37834 | 76 ft | 8 kts | 33° |
| 2026-04-26 14:13 | 25.24435 | 55.37895 | 76 ft | 16 kts | 34° |
| 2026-04-26 14:14 | 25.24529 | 55.37965 | 76 ft | 15 kts | 34° |
| 2026-04-26 14:14 | 25.24616 | 55.38029 | 76 ft | 14 kts | 33° |
| 2026-04-26 14:14 | 25.24632 | 55.38041 | 76 ft | 0 kts | 32° |
| 2026-04-26 14:15 | 25.24637 | 55.38044 | 76 ft | 4 kts | 32° |
| 2026-04-26 14:15 | 25.24699 | 55.38087 | 76 ft | 13 kts | 31° |
| 2026-04-26 14:15 | 25.24751 | 55.38112 | 76 ft | 3 kts | 351° |
| 2026-04-26 14:15 | 25.24769 | 55.38096 | 76 ft | 3 kts | 302° |
| 2026-04-26 14:16 | 25.24772 | 55.38090 | 76 ft | 1 kts | 301° |
| 2026-04-26 14:16 | 25.24821 | 55.38002 | 76 ft | 39 kts | 301° |
| 2026-04-26 14:16 | 25.25091 | 55.37513 | 76 ft | 107 kts | 301° |
| 2026-04-26 14:16 | 25.25593 | 55.36610 | 76 ft | 165 kts | 300° |
| 2026-04-26 14:17 | 25.26225 | 55.35450 | 498 ft | 181 kts | 301° |
| 2026-04-26 14:17 | 25.26881 | 55.34259 | 1140 ft | 190 kts | 301° |
| 2026-04-26 14:17 | 25.27582 | 55.33002 | 1724 ft | 198 kts | 302° |
| 2026-04-26 14:17 | 25.28340 | 55.31645 | 2110 ft | 214 kts | 302° |
| 2026-04-26 14:18 | 25.29255 | 55.30349 | 2720 ft | 218 kts | 320° |
| 2026-04-26 14:18 | 25.30610 | 55.29601 | 3327 ft | 225 kts | 346° |
| 2026-04-26 14:18 | 25.32131 | 55.29502 | 3930 ft | 231 kts | 357° |
| 2026-04-26 14:18 | 25.33684 | 55.29556 | 4595 ft | 232 kts | 358° |
| 2026-04-26 14:19 | 25.35311 | 55.29607 | 5228 ft | 235 kts | 357° |
| 2026-04-26 14:19 | 25.36950 | 55.29649 | 5902 ft | 236 kts | 356° |
| 2026-04-26 14:19 | 25.38618 | 55.29734 | 6439 ft | 246 kts | 6° |
| 2026-04-26 14:19 | 25.40227 | 55.30489 | 6880 ft | 265 kts | 34° |
| 2026-04-26 14:20 | 25.41578 | 55.32024 | 7195 ft | 288 kts | 47° |
| 2026-04-26 14:20 | 25.42840 | 55.33796 | 7694 ft | 297 kts | 49° |
| 2026-04-26 14:20 | 25.44124 | 55.35592 | 8379 ft | 299 kts | 49° |
| 2026-04-26 14:20 | 25.45444 | 55.37412 | 9000 ft | 304 kts | 48° |
| 2026-04-26 14:21 | 25.46785 | 55.39248 | 9640 ft | 307 kts | 48° |
| 2026-04-26 14:21 | 25.48127 | 55.41083 | 10242 ft | 312 kts | 48° |
| 2026-04-26 14:21 | 25.49518 | 55.43023 | 10603 ft | 328 kts | 50° |
| 2026-04-26 14:21 | 25.50789 | 55.45228 | 10966 ft | 348 kts | 63° |
| 2026-04-26 14:22 | 25.51599 | 55.47793 | 11279 ft | 366 kts | 77° |
| 2026-04-26 14:22 | 25.51841 | 55.50690 | 11667 ft | 382 kts | 91° |
| 2026-04-26 14:22 | 25.51435 | 55.53648 | 12039 ft | 398 kts | 106° |
| 2026-04-26 14:22 | 25.50328 | 55.56495 | 12518 ft | 408 kts | 122° |
| 2026-04-26 14:23 | 25.48741 | 55.59172 | 13222 ft | 414 kts | 125° |
| 2026-04-26 14:23 | 25.47136 | 55.61823 | 14115 ft | 416 kts | 124° |
| 2026-04-26 14:23 | 25.45532 | 55.64517 | 15005 ft | 420 kts | 124° |
| 2026-04-26 14:23 | 25.43927 | 55.67267 | 15846 ft | 426 kts | 122° |
| 2026-04-26 14:24 | 25.42616 | 55.70224 | 16673 ft | 434 kts | 112° |
| 2026-04-26 14:24 | 25.41748 | 55.73440 | 17557 ft | 439 kts | 105° |
| 2026-04-26 14:24 | 25.41031 | 55.76786 | 18405 ft | 444 kts | 104° |
| 2026-04-26 14:24 | 25.40318 | 55.80157 | 19142 ft | 451 kts | 105° |
| 2026-04-26 14:25 | 25.39596 | 55.83562 | 19843 ft | 459 kts | 105° |
| 2026-04-26 14:25 | 25.38860 | 55.87025 | 20650 ft | 463 kts | 105° |
| 2026-04-26 14:25 | 25.38115 | 55.90519 | 21445 ft | 468 kts | 105° |
| 2026-04-26 14:25 | 25.37361 | 55.94050 | 22133 ft | 475 kts | 105° |
| 2026-04-26 14:26 | 25.36596 | 55.97624 | 22820 ft | 480 kts | 105° |
| 2026-04-26 14:26 | 25.35822 | 56.01239 | 23469 ft | 486 kts | 105° |
| 2026-04-26 14:26 | 25.35031 | 56.04929 | 24148 ft | 491 kts | 105° |
| 2026-04-26 14:26 | 25.34236 | 56.08630 | 24791 ft | 496 kts | 105° |
| 2026-04-26 14:27 | 25.33435 | 56.12351 | 25409 ft | 502 kts | 105° |
| 2026-04-26 14:27 | 25.32533 | 56.16093 | 25992 ft | 506 kts | 110° |
| 2026-04-26 14:27 | 25.31358 | 56.19798 | 26595 ft | 510 kts | 111° |
| 2026-04-26 14:27 | 25.30156 | 56.23456 | 27193 ft | 515 kts | 111° |
| 2026-04-26 14:28 | 25.28915 | 56.27222 | 27780 ft | 520 kts | 111° |
| 2026-04-26 14:28 | 25.27672 | 56.30993 | 28364 ft | 524 kts | 111° |
| 2026-04-26 14:28 | 25.26407 | 56.34827 | 28920 ft | 529 kts | 111° |
| 2026-04-26 14:28 | 25.25149 | 56.38641 | 29504 ft | 533 kts | 111° |
| 2026-04-26 14:29 | 25.23888 | 56.42458 | 30156 ft | 534 kts | 110° |
| 2026-04-26 14:29 | 25.22600 | 56.46349 | 30825 ft | 535 kts | 110° |
| 2026-04-26 14:29 | 25.21329 | 56.50190 | 31459 ft | 536 kts | 110° |
| 2026-04-26 14:29 | 25.20035 | 56.54098 | 32020 ft | 538 kts | 109° |
| 2026-04-26 14:30 | 25.18741 | 56.57998 | 32519 ft | 540 kts | 109° |
| 2026-04-26 14:30 | 25.17347 | 56.61917 | 33044 ft | 542 kts | 111° |
| 2026-04-26 14:30 | 25.15893 | 56.65744 | 33714 ft | 542 kts | 112° |
| 2026-04-26 14:30 | 25.14443 | 56.69548 | 34427 ft | 539 kts | 112° |
| 2026-04-26 14:31 | 25.12999 | 56.73342 | 34790 ft | 542 kts | 112° |
| 2026-04-26 14:31 | 25.10079 | 56.81025 | 34796 ft | 537 kts | 112° |
| 2026-04-26 14:32 | 25.07194 | 56.88624 | 34801 ft | 537 kts | 111° |
| 2026-04-26 14:32 | 25.04312 | 56.96211 | 34797 ft | 537 kts | 111° |
| 2026-04-26 14:33 | 25.01494 | 57.03623 | 34792 ft | 537 kts | 111° |
| 2026-04-26 14:33 | 24.98608 | 57.11201 | 34795 ft | 535 kts | 111° |
| 2026-04-26 14:34 | 24.95729 | 57.18752 | 34794 ft | 535 kts | 111° |
| 2026-04-26 14:34 | 24.92833 | 57.26334 | 34796 ft | 534 kts | 111° |
| 2026-04-26 14:35 | 24.89993 | 57.33758 | 34796 ft | 533 kts | 111° |
| 2026-04-26 14:35 | 24.87143 | 57.41194 | 34785 ft | 532 kts | 111° |
| 2026-04-26 14:36 | 24.84350 | 57.48471 | 34790 ft | 534 kts | 111° |
| 2026-04-26 14:36 | 24.81464 | 57.55975 | 34793 ft | 531 kts | 111° |
| 2026-04-26 14:37 | 24.78642 | 57.63302 | 34790 ft | 532 kts | 111° |
| 2026-04-26 14:37 | 24.75796 | 57.70677 | 34780 ft | 531 kts | 111° |
| 2026-04-26 14:38 | 24.73191 | 57.78239 | 34783 ft | 528 kts | 102° |
| 2026-04-26 14:38 | 24.71998 | 57.86093 | 34781 ft | 526 kts | 95° |
| 2026-04-26 14:39 | 24.71028 | 57.93894 | 34786 ft | 524 kts | 95° |
| 2026-04-26 14:39 | 24.70029 | 58.01869 | 34785 ft | 524 kts | 95° |
| 2026-04-26 14:40 | 24.69078 | 58.09385 | 34784 ft | 523 kts | 95° |
| 2026-04-26 14:40 | 24.68069 | 58.17323 | 34781 ft | 523 kts | 95° |
| 2026-04-26 14:41 | 24.67118 | 58.24760 | 34783 ft | 523 kts | 95° |
| 2026-04-26 14:41 | 24.66127 | 58.32466 | 34779 ft | 521 kts | 94° |
| 2026-04-26 14:42 | 24.65108 | 58.40360 | 34774 ft | 523 kts | 95° |
| 2026-04-26 14:42 | 24.64113 | 58.48040 | 34780 ft | 521 kts | 95° |
| 2026-04-26 14:43 | 24.63089 | 58.55902 | 34778 ft | 520 kts | 95° |
| 2026-04-26 14:43 | 24.62060 | 58.63769 | 34773 ft | 520 kts | 95° |
| 2026-04-26 14:44 | 24.61031 | 58.71612 | 34769 ft | 521 kts | 95° |
| 2026-04-26 14:44 | 24.60016 | 58.79315 | 34764 ft | 520 kts | 95° |
| 2026-04-26 14:45 | 24.58974 | 58.87184 | 34757 ft | 521 kts | 95° |
| 2026-04-26 14:45 | 24.57933 | 58.95018 | 34754 ft | 518 kts | 95° |
| 2026-04-26 14:46 | 24.56890 | 59.02833 | 34765 ft | 517 kts | 95° |
| 2026-04-26 14:46 | 24.55842 | 59.10655 | 34759 ft | 518 kts | 95° |
| 2026-04-26 14:47 | 24.54790 | 59.18476 | 34762 ft | 517 kts | 95° |
| 2026-04-26 14:47 | 24.53407 | 59.26260 | 34773 ft | 519 kts | 100° |
| 2026-04-26 14:48 | 24.51915 | 59.33248 | 34773 ft | 517 kts | 100° |
| 2026-04-26 14:48 | 24.50289 | 59.40843 | 34770 ft | 517 kts | 100° |
| 2026-04-26 14:49 | 24.48644 | 59.48512 | 34768 ft | 517 kts | 100° |
| 2026-04-26 14:49 | 24.46989 | 59.56213 | 34772 ft | 516 kts | 100° |
| 2026-04-26 14:50 | 24.45340 | 59.63868 | 34763 ft | 517 kts | 100° |
| 2026-04-26 14:50 | 24.43690 | 59.71505 | 34763 ft | 515 kts | 101° |
| 2026-04-26 14:51 | 24.42027 | 59.79184 | 34766 ft | 515 kts | 101° |
| 2026-04-26 14:51 | 24.40366 | 59.86838 | 34774 ft | 516 kts | 101° |
| 2026-04-26 14:52 | 24.38758 | 59.94225 | 34771 ft | 513 kts | 101° |
| 2026-04-26 14:52 | 24.37091 | 60.01868 | 34768 ft | 514 kts | 101° |
| 2026-04-26 14:53 | 24.35458 | 60.09336 | 34772 ft | 512 kts | 101° |
| 2026-04-26 14:53 | 24.33830 | 60.16768 | 34769 ft | 513 kts | 101° |
| 2026-04-26 14:54 | 24.32164 | 60.24354 | 34777 ft | 513 kts | 101° |
| 2026-04-26 14:54 | 24.30493 | 60.31943 | 34779 ft | 513 kts | 101° |
| 2026-04-26 14:55 | 24.28842 | 60.39424 | 34780 ft | 510 kts | 101° |
| 2026-04-26 14:55 | 24.27166 | 60.47001 | 34781 ft | 510 kts | 101° |
| 2026-04-26 14:56 | 24.25564 | 60.54225 | 34777 ft | 510 kts | 101° |
| 2026-04-26 14:56 | 24.23885 | 60.61775 | 34784 ft | 510 kts | 101° |
| 2026-04-26 14:57 | 24.22203 | 60.69323 | 34780 ft | 509 kts | 102° |
| 2026-04-26 14:57 | 24.20567 | 60.76645 | 34778 ft | 508 kts | 102° |
| 2026-04-26 14:58 | 24.18894 | 60.84137 | 34769 ft | 509 kts | 102° |
| 2026-04-26 14:58 | 24.17210 | 60.91661 | 34788 ft | 508 kts | 102° |
| 2026-04-26 14:59 | 24.15565 | 60.98990 | 34785 ft | 507 kts | 102° |
| 2026-04-26 14:59 | 24.13901 | 61.06390 | 34782 ft | 506 kts | 102° |
| 2026-04-26 15:00 | 24.12216 | 61.13860 | 34794 ft | 507 kts | 102° |
| 2026-04-26 15:00 | 24.10539 | 61.21277 | 34780 ft | 506 kts | 102° |
| 2026-04-26 15:01 | 24.08915 | 61.28471 | 34784 ft | 508 kts | 101° |
| 2026-04-26 15:01 | 24.08343 | 61.36105 | 34789 ft | 500 kts | 83° |
| 2026-04-26 15:02 | 24.09271 | 61.43389 | 34789 ft | 500 kts | 78° |
| 2026-04-26 15:02 | 24.10368 | 61.50839 | 34790 ft | 498 kts | 78° |
| 2026-04-26 15:03 | 24.11471 | 61.58360 | 34787 ft | 498 kts | 78° |
| 2026-04-26 15:03 | 24.12545 | 61.65718 | 34786 ft | 499 kts | 78° |
| 2026-04-26 15:04 | 24.13646 | 61.73306 | 34787 ft | 498 kts | 78° |
| 2026-04-26 15:04 | 24.14691 | 61.80533 | 34783 ft | 498 kts | 79° |
| 2026-04-26 15:05 | 24.15718 | 61.88046 | 34782 ft | 500 kts | 79° |
| 2026-04-26 15:05 | 24.16734 | 61.95547 | 34786 ft | 498 kts | 79° |
| 2026-04-26 15:06 | 24.17719 | 62.02841 | 34783 ft | 499 kts | 79° |
| 2026-04-26 15:06 | 24.18714 | 62.10223 | 34776 ft | 497 kts | 79° |
| 2026-04-26 15:07 | 24.20200 | 62.21301 | 34781 ft | 497 kts | 79° |
| 2026-04-26 15:07 | 24.21198 | 62.28775 | 34783 ft | 498 kts | 79° |
| 2026-04-26 15:08 | 24.22165 | 62.36035 | 34779 ft | 497 kts | 79° |
| 2026-04-26 15:08 | 24.23156 | 62.43514 | 34783 ft | 497 kts | 79° |
| 2026-04-26 15:09 | 24.24148 | 62.51026 | 34778 ft | 496 kts | 79° |
| 2026-04-26 15:09 | 24.25131 | 62.58491 | 34782 ft | 496 kts | 79° |
| 2026-04-26 15:10 | 24.25944 | 62.64691 | 34777 ft | 495 kts | 79° |
| 2026-04-26 15:10 | 24.27084 | 62.73418 | 34773 ft | 496 kts | 79° |
| 2026-04-26 15:11 | 24.28050 | 62.80849 | 34774 ft | 496 kts | 79° |
| 2026-04-26 15:11 | 24.29017 | 62.88309 | 34777 ft | 494 kts | 79° |
| 2026-04-26 15:12 | 24.29979 | 62.95768 | 34773 ft | 495 kts | 79° |
| 2026-04-26 15:12 | 24.30946 | 63.03286 | 34777 ft | 493 kts | 79° |
| 2026-04-26 15:13 | 24.31897 | 63.10711 | 34772 ft | 494 kts | 79° |
| 2026-04-26 15:13 | 24.32844 | 63.18146 | 34776 ft | 494 kts | 79° |
| 2026-04-26 15:14 | 24.33797 | 63.25644 | 34774 ft | 495 kts | 79° |
| 2026-04-26 15:14 | 24.34742 | 63.33113 | 34768 ft | 494 kts | 79° |
| 2026-04-26 15:15 | 24.35685 | 63.40593 | 34771 ft | 494 kts | 79° |